sensor_id;sensor_type;location;lat;lon;timestamp;pressure;altitude;pressure_sealevel;temperature;humidity
56518;BME280;42419;48.760;2.322;2022-08-16T00:00:32;100029.66;;;24.80;47.74
56518;BME280;42419;48.760;2.322;2022-08-16T00:02:59;100025.34;;;24.78;47.31
56518;BME280;42419;48.760;2.322;2022-08-16T00:05:25;100016.94;;;24.70;47.59
56518;BME280;42419;48.760;2.322;2022-08-16T00:07:52;100037.84;;;24.79;47.66
56518;BME280;42419;48.760;2.322;2022-08-16T00:10:19;100040.63;;;24.77;47.63
56518;BME280;42419;48.760;2.322;2022-08-16T00:12:45;100034.06;;;24.69;47.23
56518;BME280;42419;48.760;2.322;2022-08-16T00:15:24;100050.13;;;24.70;47.26
56518;BME280;42419;48.760;2.322;2022-08-16T00:17:49;100031.59;;;24.66;47.18
56518;BME280;42419;48.760;2.322;2022-08-16T00:20:15;100028.81;;;24.67;47.53
56518;BME280;42419;48.760;2.322;2022-08-16T00:22:41;100030.09;;;24.62;47.10
56518;BME280;42419;48.760;2.322;2022-08-16T00:25:12;100049.34;;;24.68;47.40
56518;BME280;42419;48.760;2.322;2022-08-16T00:27:38;100028.59;;;24.57;47.19
56518;BME280;42419;48.760;2.322;2022-08-16T00:30:05;100050.34;;;24.67;47.41
56518;BME280;42419;48.760;2.322;2022-08-16T00:32:31;100038.16;;;24.62;47.29
56518;BME280;42419;48.760;2.322;2022-08-16T00:34:56;100042.47;;;24.64;47.25
56518;BME280;42419;48.760;2.322;2022-08-16T00:37:23;100046.78;;;24.67;47.36
56518;BME280;42419;48.760;2.322;2022-08-16T00:39:49;100046.78;;;24.67;47.43
56518;BME280;42419;48.760;2.322;2022-08-16T00:42:14;100044.09;;;24.67;47.06
56518;BME280;42419;48.760;2.322;2022-08-16T00:44:53;100018.78;;;24.56;47.28
56518;BME280;42419;48.760;2.322;2022-08-16T00:47:20;100038.72;;;24.67;47.53
56518;BME280;42419;48.760;2.322;2022-08-16T00:49:48;100037.84;;;24.66;47.13
56518;BME280;42419;48.760;2.322;2022-08-16T00:52:13;100034.19;;;24.67;47.26
56518;BME280;42419;48.760;2.322;2022-08-16T00:54:38;100025.56;;;24.62;47.37
56518;BME280;42419;48.760;2.322;2022-08-16T00:57:04;100028.81;;;24.67;47.24
56518;BME280;42419;48.760;2.322;2022-08-16T00:59:34;100017.81;;;24.57;47.58
56518;BME280;42419;48.760;2.322;2022-08-16T01:02:02;100021.69;;;24.66;47.70
56518;BME280;42419;48.760;2.322;2022-08-16T01:04:28;100024.50;;;24.65;46.97
56518;BME280;42419;48.760;2.322;2022-08-16T01:06:54;99992.47;;;24.47;47.45
56518;BME280;42419;48.760;2.322;2022-08-16T01:09:21;100015.88;;;24.59;46.92
56518;BME280;42419;48.760;2.322;2022-08-16T01:11:46;100013.06;;;24.61;46.90
56518;BME280;42419;48.760;2.322;2022-08-16T01:14:19;100024.50;;;24.65;47.29
56518;BME280;42419;48.760;2.322;2022-08-16T01:16:46;100012.44;;;24.57;47.26
56518;BME280;42419;48.760;2.322;2022-08-16T01:21:57;100030.09;;;24.62;47.35
56518;BME280;42419;48.760;2.322;2022-08-16T01:26:57;100021.47;;;24.56;47.18
56518;BME280;42419;48.760;2.322;2022-08-16T01:29:35;100033.00;;;24.58;46.84
56518;BME280;42419;48.760;2.322;2022-08-16T01:32:02;99984.41;;;24.35;47.37
56518;BME280;42419;48.760;2.322;2022-08-16T01:34:28;100016.09;;;24.56;47.02
56518;BME280;42419;48.760;2.322;2022-08-16T01:37:08;100009.94;;;24.54;46.93
56518;BME280;42419;48.760;2.322;2022-08-16T01:39:34;100011.66;;;24.55;47.31
56518;BME280;42419;48.760;2.322;2022-08-16T01:42:00;99997.78;;;24.49;46.89
56518;BME280;42419;48.760;2.322;2022-08-16T01:44:26;100001.44;;;24.48;46.85
56518;BME280;42419;48.760;2.322;2022-08-16T01:46:51;99983.22;;;24.39;46.91
56518;BME280;42419;48.760;2.322;2022-08-16T01:49:24;100002.31;;;24.48;46.51
56518;BME280;42419;48.760;2.322;2022-08-16T01:51:59;99980.06;;;24.32;47.20
56518;BME280;42419;48.760;2.322;2022-08-16T01:54:26;100005.75;;;24.50;47.12
56518;BME280;42419;48.760;2.322;2022-08-16T01:56:52;100013.81;;;24.50;47.07
56518;BME280;42419;48.760;2.322;2022-08-16T01:59:18;100000.66;;;24.46;47.00
56518;BME280;42419;48.760;2.322;2022-08-16T02:01:46;100000.78;;;24.44;47.00
56518;BME280;42419;48.760;2.322;2022-08-16T02:04:12;100016.50;;;24.50;47.13
56518;BME280;42419;48.760;2.322;2022-08-16T02:06:39;100021.03;;;24.50;46.95
56518;BME280;42419;48.760;2.322;2022-08-16T02:09:05;100020.34;;;24.46;46.68
56518;BME280;42419;48.760;2.322;2022-08-16T02:11:32;100015.78;;;24.48;46.77
56518;BME280;42419;48.760;2.322;2022-08-16T02:13:57;100012.13;;;24.49;46.49
56518;BME280;42419;48.760;2.322;2022-08-16T02:16:23;99997.31;;;24.42;46.88
56518;BME280;42419;48.760;2.322;2022-08-16T02:18:48;100012.13;;;24.49;46.92
56518;BME280;42419;48.760;2.322;2022-08-16T02:21:15;99969.75;;;24.26;46.96
56518;BME280;42419;48.760;2.322;2022-08-16T02:23:41;100002.69;;;24.42;47.01
56518;BME280;42419;48.760;2.322;2022-08-16T02:26:06;99991.28;;;24.39;46.59
56518;BME280;42419;48.760;2.322;2022-08-16T02:28:32;99974.81;;;24.31;46.77
56518;BME280;42419;48.760;2.322;2022-08-16T02:31:00;99971.69;;;24.37;46.81
56518;BME280;42419;48.760;2.322;2022-08-16T02:33:27;99982.59;;;24.48;46.36
56518;BME280;42419;48.760;2.322;2022-08-16T02:35:52;99965.66;;;24.46;46.57
56518;BME280;42419;48.760;2.322;2022-08-16T02:38:18;99956.00;;;24.43;46.81
56518;BME280;42419;48.760;2.322;2022-08-16T02:40:43;99955.03;;;24.44;46.79
56518;BME280;42419;48.760;2.322;2022-08-16T02:43:08;99949.50;;;24.46;46.75
56518;BME280;42419;48.760;2.322;2022-08-16T02:45:34;99953.19;;;24.45;47.03
56518;BME280;42419;48.760;2.322;2022-08-16T02:47:59;99972.78;;;24.47;46.99
56518;BME280;42419;48.760;2.322;2022-08-16T02:50:25;99982.50;;;24.49;46.61
56518;BME280;42419;48.760;2.322;2022-08-16T02:52:51;99962.56;;;24.39;46.90
56518;BME280;42419;48.760;2.322;2022-08-16T02:55:17;99956.72;;;24.45;46.53
56518;BME280;42419;48.760;2.322;2022-08-16T02:57:42;99961.16;;;24.46;46.82
56518;BME280;42419;48.760;2.322;2022-08-16T03:00:10;99963.69;;;24.49;47.00
56518;BME280;42419;48.760;2.322;2022-08-16T03:02:38;99940.06;;;24.40;46.81
56518;BME280;42419;48.760;2.322;2022-08-16T03:05:07;99914.78;;;24.30;47.15
56518;BME280;42419;48.760;2.322;2022-08-16T03:07:33;99948.50;;;24.48;47.16
56518;BME280;42419;48.760;2.322;2022-08-16T03:09:58;99948.88;;;24.42;47.04
56518;BME280;42419;48.760;2.322;2022-08-16T03:12:24;99946.94;;;24.44;46.78
56518;BME280;42419;48.760;2.322;2022-08-16T03:14:50;99932.09;;;24.39;47.14
56518;BME280;42419;48.760;2.322;2022-08-16T03:17:16;99940.56;;;24.45;46.93
56518;BME280;42419;48.760;2.322;2022-08-16T03:19:41;99928.31;;;24.41;47.22
56518;BME280;42419;48.760;2.322;2022-08-16T03:22:07;99944.13;;;24.46;47.17
56518;BME280;42419;48.760;2.322;2022-08-16T03:24:33;99960.19;;;24.47;47.69
56518;BME280;42419;48.760;2.322;2022-08-16T03:27:00;99982.50;;;24.49;47.21
56518;BME280;42419;48.760;2.322;2022-08-16T03:29:30;99984.41;;;24.47;47.51
56518;BME280;42419;48.760;2.322;2022-08-16T03:32:00;99981.06;;;24.44;47.19
56518;BME280;42419;48.760;2.322;2022-08-16T03:34:26;99984.09;;;24.39;47.52
56518;BME280;42419;48.760;2.322;2022-08-16T03:36:51;99977.28;;;24.34;47.17
56518;BME280;42419;48.760;2.322;2022-08-16T03:39:17;99988.81;;;24.36;47.10
56518;BME280;42419;48.760;2.322;2022-08-16T03:41:42;99980.72;;;24.23;47.28
56518;BME280;42419;48.760;2.322;2022-08-16T03:44:08;100001.72;;;24.31;47.20
56518;BME280;42419;48.760;2.322;2022-08-16T03:46:34;100001.81;;;24.29;47.61
56518;BME280;42419;48.760;2.322;2022-08-16T03:49:00;100003.56;;;24.30;47.58
56518;BME280;42419;48.760;2.322;2022-08-16T03:51:25;100007.09;;;24.31;47.25
56518;BME280;42419;48.760;2.322;2022-08-16T03:53:51;100002.47;;;24.33;47.74
56518;BME280;42419;48.760;2.322;2022-08-16T03:56:17;99986.78;;;24.27;47.74
56518;BME280;42419;48.760;2.322;2022-08-16T03:58:42;99995.47;;;24.30;47.62
56518;BME280;42419;48.760;2.322;2022-08-16T04:01:08;99993.53;;;24.32;47.54
56518;BME280;42419;48.760;2.322;2022-08-16T04:03:35;99994.38;;;24.33;47.48
56518;BME280;42419;48.760;2.322;2022-08-16T04:06:00;99977.81;;;24.26;47.28
56518;BME280;42419;48.760;2.322;2022-08-16T04:08:25;99971.69;;;24.24;47.41
56518;BME280;42419;48.760;2.322;2022-08-16T04:10:52;99987.50;;;24.29;47.46
56518;BME280;42419;48.760;2.322;2022-08-16T04:13:18;99991.06;;;24.29;47.35
56518;BME280;42419;48.760;2.322;2022-08-16T04:15:44;100001.59;;;24.32;47.31
56518;BME280;42419;48.760;2.322;2022-08-16T04:18:09;99987.50;;;24.29;47.55
56518;BME280;42419;48.760;2.322;2022-08-16T04:20:34;99996.22;;;24.32;47.41
56518;BME280;42419;48.760;2.322;2022-08-16T04:23:00;99978.69;;;24.27;47.83
56518;BME280;42419;48.760;2.322;2022-08-16T04:25:27;99996.22;;;24.32;47.30
56518;BME280;42419;48.760;2.322;2022-08-16T04:27:52;99983.53;;;24.22;47.70
56518;BME280;42419;48.760;2.322;2022-08-16T04:30:19;99991.94;;;24.30;47.68
56518;BME280;42419;48.760;2.322;2022-08-16T04:32:46;99987.50;;;24.29;47.78
56518;BME280;42419;48.760;2.322;2022-08-16T04:35:14;99981.56;;;24.24;47.34
56518;BME280;42419;48.760;2.322;2022-08-16T04:37:47;99984.41;;;24.22;47.52
56518;BME280;42419;48.760;2.322;2022-08-16T04:40:13;99993.00;;;24.27;47.46
56518;BME280;42419;48.760;2.322;2022-08-16T04:42:39;99996.34;;;24.31;47.72
56518;BME280;42419;48.760;2.322;2022-08-16T04:45:11;99997.31;;;24.30;47.65
56518;BME280;42419;48.760;2.322;2022-08-16T04:47:38;99983.84;;;24.30;47.32
56518;BME280;42419;48.760;2.322;2022-08-16T04:52:37;99994.72;;;24.28;47.29
56518;BME280;42419;48.760;2.322;2022-08-16T04:55:09;100000.09;;;24.28;47.34
56518;BME280;42419;48.760;2.322;2022-08-16T04:57:36;99999.13;;;24.29;47.51
56518;BME280;42419;48.760;2.322;2022-08-16T05:00:03;99974.25;;;24.13;47.45
56518;BME280;42419;48.760;2.322;2022-08-16T05:02:30;99996.75;;;24.25;47.77
56518;BME280;42419;48.760;2.322;2022-08-16T05:04:56;100010.84;;;24.28;47.44
56518;BME280;42419;48.760;2.322;2022-08-16T05:07:21;100016.13;;;24.30;47.54
56518;BME280;42419;48.760;2.322;2022-08-16T05:09:46;100009.25;;;24.26;47.32
56518;BME280;42419;48.760;2.322;2022-08-16T05:12:12;100001.09;;;24.27;47.29
56518;BME280;42419;48.760;2.322;2022-08-16T05:14:37;100001.91;;;24.28;47.64
56518;BME280;42419;48.760;2.322;2022-08-16T05:17:02;100022.59;;;24.27;47.88
56518;BME280;42419;48.760;2.322;2022-08-16T05:19:28;99982.63;;;23.96;47.94
56518;BME280;42419;48.760;2.322;2022-08-16T05:21:53;100028.78;;;24.15;47.69
56518;BME280;42419;48.760;2.322;2022-08-16T05:24:19;100028.69;;;24.04;48.06
56518;BME280;42419;48.760;2.322;2022-08-16T05:26:44;100033.19;;;24.03;48.23
56518;BME280;42419;48.760;2.322;2022-08-16T05:29:09;100031.97;;;23.95;48.08
56518;BME280;42419;48.760;2.322;2022-08-16T05:31:35;100020.66;;;23.90;48.08
56518;BME280;42419;48.760;2.322;2022-08-16T05:34:02;100023.44;;;23.88;48.16
56518;BME280;42419;48.760;2.322;2022-08-16T05:36:28;100023.38;;;23.76;48.92
56518;BME280;42419;48.760;2.322;2022-08-16T05:38:53;100001.47;;;23.55;49.05
56518;BME280;42419;48.760;2.322;2022-08-16T05:41:19;100037.22;;;23.69;49.15
56518;BME280;42419;48.760;2.322;2022-08-16T05:43:44;100041.84;;;23.67;48.98
56518;BME280;42419;48.760;2.322;2022-08-16T05:46:11;100043.00;;;23.63;49.17
56518;BME280;42419;48.760;2.322;2022-08-16T05:48:37;100046.09;;;23.57;49.36
56518;BME280;42419;48.760;2.322;2022-08-16T05:51:02;100038.63;;;23.48;49.37
56518;BME280;42419;48.760;2.322;2022-08-16T05:53:28;100033.97;;;23.38;49.59
56518;BME280;42419;48.760;2.322;2022-08-16T05:55:53;100031.94;;;23.27;49.68
56518;BME280;42419;48.760;2.322;2022-08-16T05:58:18;100050.97;;;23.24;50.32
56518;BME280;42419;48.760;2.322;2022-08-16T06:00:44;100046.03;;;23.16;50.40
56518;BME280;42419;48.760;2.322;2022-08-16T06:03:09;100046.22;;;23.13;50.10
56518;BME280;42419;48.760;2.322;2022-08-16T06:05:34;100059.28;;;23.19;50.27
56518;BME280;42419;48.760;2.322;2022-08-16T06:08:00;100067.78;;;23.12;50.20
56518;BME280;42419;48.760;2.322;2022-08-16T06:10:25;100063.69;;;23.06;50.50
56518;BME280;42419;48.760;2.322;2022-08-16T06:12:50;100077.78;;;23.10;50.90
56518;BME280;42419;48.760;2.322;2022-08-16T06:15:18;100077.13;;;23.06;50.73
56518;BME280;42419;48.760;2.322;2022-08-16T06:17:44;100080.56;;;23.08;51.08
56518;BME280;42419;48.760;2.322;2022-08-16T06:20:13;100061.69;;;23.10;50.68
56518;BME280;42419;48.760;2.322;2022-08-16T06:22:40;100061.69;;;23.10;50.92
56518;BME280;42419;48.760;2.322;2022-08-16T06:25:05;100058.91;;;23.11;50.62
56518;BME280;42419;48.760;2.322;2022-08-16T06:27:30;100069.44;;;23.14;50.39
56518;BME280;42419;48.760;2.322;2022-08-16T06:29:56;100074.28;;;23.23;50.82
56518;BME280;42419;48.760;2.322;2022-08-16T06:32:21;100067.94;;;23.24;50.59
56518;BME280;42419;48.760;2.322;2022-08-16T06:34:46;100057.75;;;23.29;50.33
56518;BME280;42419;48.760;2.322;2022-08-16T06:37:12;100045.97;;;23.32;50.50
56518;BME280;42419;48.760;2.322;2022-08-16T06:39:37;100062.81;;;23.34;50.13
56518;BME280;42419;48.760;2.322;2022-08-16T06:42:03;100069.84;;;23.37;49.82
56518;BME280;42419;48.760;2.322;2022-08-16T06:44:29;100060.34;;;23.31;50.19
56518;BME280;42419;48.760;2.322;2022-08-16T06:46:54;100070.50;;;23.40;49.94
56518;BME280;42419;48.760;2.322;2022-08-16T06:49:19;100072.22;;;23.41;50.02
56518;BME280;42419;48.760;2.322;2022-08-16T06:51:45;100068.97;;;23.36;49.86
56518;BME280;42419;48.760;2.322;2022-08-16T06:54:11;100074.91;;;23.41;49.83
56518;BME280;42419;48.760;2.322;2022-08-16T06:56:36;100068.88;;;23.38;49.88
56518;BME280;42419;48.760;2.322;2022-08-16T06:59:03;100080.16;;;23.43;49.90
56518;BME280;42419;48.760;2.322;2022-08-16T07:01:28;100066.28;;;23.36;49.81
56518;BME280;42419;48.760;2.322;2022-08-16T07:03:53;100042.03;;;23.23;49.93
56518;BME280;42419;48.760;2.322;2022-08-16T07:06:20;100041.75;;;23.28;49.87
56518;BME280;42419;48.760;2.322;2022-08-16T07:08:47;100050.47;;;23.32;49.68
56518;BME280;42419;48.760;2.322;2022-08-16T07:11:14;100062.44;;;23.40;49.70
56518;BME280;42419;48.760;2.322;2022-08-16T07:13:39;100077.19;;;23.47;49.77
56518;BME280;42419;48.760;2.322;2022-08-16T07:16:06;100053.72;;;23.37;49.96
56518;BME280;42419;48.760;2.322;2022-08-16T07:18:33;100079.78;;;23.49;49.93
56518;BME280;42419;48.760;2.322;2022-08-16T07:20:59;100072.03;;;23.44;49.58
56518;BME280;42419;48.760;2.322;2022-08-16T07:23:25;100079.78;;;23.49;49.95
56518;BME280;42419;48.760;2.322;2022-08-16T07:25:51;100074.22;;;23.52;49.59
56518;BME280;42419;48.760;2.322;2022-08-16T07:28:18;100078.44;;;23.56;49.99
56518;BME280;42419;48.760;2.322;2022-08-16T07:30:45;100080.06;;;23.58;49.85
56518;BME280;42419;48.760;2.322;2022-08-16T07:33:11;100082.09;;;23.55;49.41
56518;BME280;42419;48.760;2.322;2022-08-16T07:35:37;100087.34;;;23.56;49.31
56518;BME280;42419;48.760;2.322;2022-08-16T07:38:04;100097.06;;;23.59;49.78
56518;BME280;42419;48.760;2.322;2022-08-16T07:40:31;100099.75;;;23.59;49.77
56518;BME280;42419;48.760;2.322;2022-08-16T07:42:56;100104.25;;;23.58;49.89
56518;BME280;42419;48.760;2.322;2022-08-16T07:45:21;100079.78;;;23.49;49.46
56518;BME280;42419;48.760;2.322;2022-08-16T07:47:47;100098.88;;;23.58;49.65
56518;BME280;42419;48.760;2.322;2022-08-16T07:50:13;100100.03;;;23.54;49.41
56518;BME280;42419;48.760;2.322;2022-08-16T07:52:41;100085.06;;;23.50;49.48
56518;BME280;42419;48.760;2.322;2022-08-16T07:55:08;100075.28;;;23.49;49.58
56518;BME280;42419;48.760;2.322;2022-08-16T07:57:34;100094.66;;;23.54;49.56
56518;BME280;42419;48.760;2.322;2022-08-16T07:59:59;100093.72;;;23.55;49.80
56518;BME280;42419;48.760;2.322;2022-08-16T08:02:26;100070.78;;;23.50;49.85
56518;BME280;42419;48.760;2.322;2022-08-16T08:04:52;100099.03;;;23.69;49.52
56518;BME280;42419;48.760;2.322;2022-08-16T08:07:18;100084.84;;;23.67;49.30
56518;BME280;42419;48.760;2.322;2022-08-16T08:09:43;100098.44;;;23.79;49.52
56518;BME280;42419;48.760;2.322;2022-08-16T08:12:09;100094.78;;;23.80;49.42
56518;BME280;42419;48.760;2.322;2022-08-16T08:14:34;100083.75;;;23.84;49.06
56518;BME280;42419;48.760;2.322;2022-08-16T08:16:59;100085.78;;;23.81;49.49
56518;BME280;42419;48.760;2.322;2022-08-16T08:19:25;100088.97;;;23.87;49.17
56518;BME280;42419;48.760;2.322;2022-08-16T08:21:51;100087.97;;;23.88;49.37
56518;BME280;42419;48.760;2.322;2022-08-16T08:24:19;100100.25;;;23.92;49.28
56518;BME280;42419;48.760;2.322;2022-08-16T08:26:45;100103.50;;;23.97;49.15
56518;BME280;42419;48.760;2.322;2022-08-16T08:29:10;100103.41;;;23.99;48.76
56518;BME280;42419;48.760;2.322;2022-08-16T08:31:35;100089.50;;;23.92;48.92
56518;BME280;42419;48.760;2.322;2022-08-16T08:34:03;100094.41;;;24.00;49.13
56518;BME280;42419;48.760;2.322;2022-08-16T08:36:30;100102.03;;;24.06;49.08
56518;BME280;42419;48.760;2.322;2022-08-16T08:38:56;100101.72;;;24.10;48.86
56518;BME280;42419;48.760;2.322;2022-08-16T08:41:22;100090.97;;;24.10;48.66
56518;BME280;42419;48.760;2.322;2022-08-16T08:43:48;100108.88;;;24.24;48.63
56518;BME280;42419;48.760;2.322;2022-08-16T08:46:14;100105.31;;;24.24;48.25
56518;BME280;42419;48.760;2.322;2022-08-16T08:48:39;100104.16;;;24.28;48.86
56518;BME280;42419;48.760;2.322;2022-08-16T08:51:06;100093.59;;;24.25;48.25
56518;BME280;42419;48.760;2.322;2022-08-16T08:53:32;100107.31;;;24.34;48.10
56518;BME280;42419;48.760;2.322;2022-08-16T08:55:58;100106.34;;;24.35;48.04
56518;BME280;42419;48.760;2.322;2022-08-16T08:58:24;100087.91;;;24.29;47.95
56518;BME280;42419;48.760;2.322;2022-08-16T09:00:49;100094.81;;;24.33;47.80
56518;BME280;42419;48.760;2.322;2022-08-16T09:03:15;100100.97;;;24.35;48.00
56518;BME280;42419;48.760;2.322;2022-08-16T09:05:40;100094.38;;;24.27;47.84
56518;BME280;42419;48.760;2.322;2022-08-16T09:08:07;100118.31;;;24.44;47.86
56518;BME280;42419;48.760;2.322;2022-08-16T09:10:33;100121.66;;;24.47;47.19
56518;BME280;42419;48.760;2.322;2022-08-16T09:12:58;100110.97;;;24.46;46.97
56518;BME280;42419;48.760;2.322;2022-08-16T09:15:24;100110.03;;;24.47;47.37
56518;BME280;42419;48.760;2.322;2022-08-16T09:17:50;100113.53;;;24.49;47.16
56518;BME280;42419;48.760;2.322;2022-08-16T09:20:23;100134.75;;;24.53;47.11
56518;BME280;42419;48.760;2.322;2022-08-16T09:22:49;100131.63;;;24.59;46.68
56518;BME280;42419;48.760;2.322;2022-08-16T09:25:16;100128.19;;;24.57;47.13
56518;BME280;42419;48.760;2.322;2022-08-16T09:27:41;100120.09;;;24.57;46.48
56518;BME280;42419;48.760;2.322;2022-08-16T09:30:07;100125.91;;;24.64;46.68
56518;BME280;42419;48.760;2.322;2022-08-16T09:32:34;100139.63;;;24.74;46.66
56518;BME280;42419;48.760;2.322;2022-08-16T09:35:00;100136.69;;;24.77;46.56
56518;BME280;42419;48.760;2.322;2022-08-16T09:37:27;100134.78;;;24.79;46.28
56518;BME280;42419;48.760;2.322;2022-08-16T09:39:54;100126.16;;;24.74;46.27
56518;BME280;42419;48.760;2.322;2022-08-16T09:42:20;100131.63;;;24.72;46.28
56518;BME280;42419;48.760;2.322;2022-08-16T09:44:46;100114.59;;;24.59;46.14
56518;BME280;42419;48.760;2.322;2022-08-16T09:47:11;100147.03;;;24.70;46.18
56518;BME280;42419;48.760;2.322;2022-08-16T09:49:37;100133.69;;;24.69;46.58
56518;BME280;42419;48.760;2.322;2022-08-16T09:52:03;100127.13;;;24.73;46.20
56518;BME280;42419;48.760;2.322;2022-08-16T09:54:29;100126.94;;;24.76;46.46
56518;BME280;42419;48.760;2.322;2022-08-16T09:56:54;100118.94;;;24.74;46.54
56518;BME280;42419;48.760;2.322;2022-08-16T09:59:22;100138.25;;;24.81;46.74
56518;BME280;42419;48.760;2.322;2022-08-16T10:01:48;100118.06;;;24.74;46.27
56518;BME280;42419;48.760;2.322;2022-08-16T10:04:15;100128.84;;;24.86;46.27
56518;BME280;42419;48.760;2.322;2022-08-16T10:06:41;100125.84;;;24.91;46.66
56518;BME280;42419;48.760;2.322;2022-08-16T10:09:11;100128.53;;;24.91;46.42
56518;BME280;42419;48.760;2.322;2022-08-16T10:11:38;100130.81;;;24.97;46.21
56518;BME280;42419;48.760;2.322;2022-08-16T10:14:23;100113.25;;;24.91;46.63
56518;BME280;42419;48.760;2.322;2022-08-16T10:16:49;100146.06;;;25.11;46.40
56518;BME280;42419;48.760;2.322;2022-08-16T10:19:15;100133.94;;;25.03;46.33
56518;BME280;42419;48.760;2.322;2022-08-16T10:21:41;100137.16;;;25.09;46.46
56518;BME280;42419;48.760;2.322;2022-08-16T10:24:07;100143.34;;;25.11;46.12
56518;BME280;42419;48.760;2.322;2022-08-16T10:26:34;100140.94;;;25.06;45.94
56518;BME280;42419;48.760;2.322;2022-08-16T10:29:00;100148.94;;;25.08;45.86
56518;BME280;42419;48.760;2.322;2022-08-16T10:31:26;100138.16;;;25.08;46.01
56518;BME280;42419;48.760;2.322;2022-08-16T10:33:52;100141.69;;;25.08;45.94
56518;BME280;42419;48.760;2.322;2022-08-16T10:36:18;100143.25;;;25.12;45.90
56518;BME280;42419;48.760;2.322;2022-08-16T10:38:44;100134.41;;;25.10;45.78
56518;BME280;42419;48.760;2.322;2022-08-16T10:41:10;100142.06;;;25.16;46.33
56518;BME280;42419;48.760;2.322;2022-08-16T10:43:37;100141.19;;;25.16;46.32
56518;BME280;42419;48.760;2.322;2022-08-16T10:46:10;100136.69;;;25.16;45.57
56518;BME280;42419;48.760;2.322;2022-08-16T10:48:37;100136.78;;;25.15;45.70
56518;BME280;42419;48.760;2.322;2022-08-16T10:51:03;100134.00;;;25.16;45.95
56518;BME280;42419;48.760;2.322;2022-08-16T10:53:31;100142.94;;;25.17;46.09
56518;BME280;42419;48.760;2.322;2022-08-16T10:55:56;100141.06;;;25.17;46.05
56518;BME280;42419;48.760;2.322;2022-08-16T10:58:24;100146.47;;;25.17;46.03
56518;BME280;42419;48.760;2.322;2022-08-16T11:00:50;100131.91;;;25.07;45.65
56518;BME280;42419;48.760;2.322;2022-08-16T11:03:15;100150.88;;;25.18;45.70
56518;BME280;42419;48.760;2.322;2022-08-16T11:05:41;100136.47;;;25.19;46.02
56518;BME280;42419;48.760;2.322;2022-08-16T11:08:09;100152.06;;;25.27;45.29
56518;BME280;42419;48.760;2.322;2022-08-16T11:10:38;100151.41;;;25.36;45.30
56518;BME280;42419;48.760;2.322;2022-08-16T11:13:05;100154.88;;;25.38;46.01
56518;BME280;42419;48.760;2.322;2022-08-16T11:15:32;100154.63;;;25.54;45.63
56518;BME280;42419;48.760;2.322;2022-08-16T11:17:58;100152.59;;;25.70;45.52
56518;BME280;42419;48.760;2.322;2022-08-16T11:20:24;100139.97;;;25.83;45.25
56518;BME280;42419;48.760;2.322;2022-08-16T11:22:50;100121.81;;;25.85;45.02
56518;BME280;42419;48.760;2.322;2022-08-16T11:25:19;100150.66;;;26.08;45.10
56518;BME280;42419;48.760;2.322;2022-08-16T11:27:44;100116.50;;;25.96;44.81
56518;BME280;42419;48.760;2.322;2022-08-16T11:30:13;100143.72;;;26.17;43.54
56518;BME280;42419;48.760;2.322;2022-08-16T11:32:39;100119.81;;;26.00;43.74
56518;BME280;42419;48.760;2.322;2022-08-16T11:35:10;100140.16;;;26.16;43.92
56518;BME280;42419;48.760;2.322;2022-08-16T11:37:35;100144.16;;;26.11;43.63
56518;BME280;42419;48.760;2.322;2022-08-16T11:40:04;100149.56;;;26.11;43.36
56518;BME280;42419;48.760;2.322;2022-08-16T11:42:30;100147.84;;;26.10;43.87
56518;BME280;42419;48.760;2.322;2022-08-16T11:44:55;100152.59;;;26.06;43.77
56518;BME280;42419;48.760;2.322;2022-08-16T11:47:20;100154.13;;;26.10;43.79
56518;BME280;42419;48.760;2.322;2022-08-16T11:49:46;100143.75;;;26.04;43.44
56518;BME280;42419;48.760;2.322;2022-08-16T11:52:11;100134.47;;;26.08;43.88
56518;BME280;42419;48.760;2.322;2022-08-16T11:54:37;100137.94;;;26.10;43.99
56518;BME280;42419;48.760;2.322;2022-08-16T11:57:04;100122.69;;;26.09;43.71
56518;BME280;42419;48.760;2.322;2022-08-16T11:59:29;100138.94;;;26.20;43.82
56518;BME280;42419;48.760;2.322;2022-08-16T12:01:56;100136.38;;;26.19;43.66
56518;BME280;42419;48.760;2.322;2022-08-16T12:04:22;100138.75;;;26.11;43.79
56518;BME280;42419;48.760;2.322;2022-08-16T12:06:48;100140.38;;;26.13;43.64
56518;BME280;42419;48.760;2.322;2022-08-16T12:09:14;100135.78;;;26.03;43.88
56518;BME280;42419;48.760;2.322;2022-08-16T12:11:39;100142.50;;;25.97;43.65
56518;BME280;42419;48.760;2.322;2022-08-16T12:14:05;100154.66;;;26.03;44.10
56518;BME280;42419;48.760;2.322;2022-08-16T12:16:33;100160.41;;;25.98;43.96
56518;BME280;42419;48.760;2.322;2022-08-16T12:18:58;100157.59;;;26.00;43.87
56518;BME280;42419;48.760;2.322;2022-08-16T12:21:24;100153.41;;;25.96;44.29
56518;BME280;42419;48.760;2.322;2022-08-16T12:23:50;100145.88;;;25.88;44.13
56518;BME280;42419;48.760;2.322;2022-08-16T12:26:15;100138.00;;;25.85;44.28
56518;BME280;42419;48.760;2.322;2022-08-16T12:28:41;100146.38;;;25.93;44.02
56518;BME280;42419;48.760;2.322;2022-08-16T12:31:07;100148.09;;;25.94;44.31
56518;BME280;42419;48.760;2.322;2022-08-16T12:33:32;100129.69;;;25.88;44.97
56518;BME280;42419;48.760;2.322;2022-08-16T12:35:58;100139.38;;;25.90;44.50
56518;BME280;42419;48.760;2.322;2022-08-16T12:38:23;100131.19;;;25.92;44.73
56518;BME280;42419;48.760;2.322;2022-08-16T12:40:49;100146.16;;;25.96;44.46
56518;BME280;42419;48.760;2.322;2022-08-16T12:43:16;100137.13;;;25.97;44.77
56518;BME280;42419;48.760;2.322;2022-08-16T12:45:48;100131.72;;;25.97;44.54
56518;BME280;42419;48.760;2.322;2022-08-16T12:48:16;100127.38;;;25.95;44.79
56518;BME280;42419;48.760;2.322;2022-08-16T12:51:08;100137.22;;;25.96;44.10
56518;BME280;42419;48.760;2.322;2022-08-16T12:53:34;100130.63;;;26.00;44.40
56518;BME280;42419;48.760;2.322;2022-08-16T12:56:01;100141.41;;;26.00;44.15